createdAt,value
2022-08-22T00:00:19.070Z,23.03
2022-08-22T00:02:45.629Z,25.38
2022-08-22T00:02:52.600Z,28.10
2022-08-22T00:02:58.275Z,27.33
2022-08-22T00:02:59.383Z,23.02
2022-08-22T00:03:04.982Z,27.78
2022-08-22T00:03:17.463Z,23.07
2022-08-22T00:06:06.079Z,23.37
2022-08-22T00:08:54.603Z,23.51
2022-08-22T00:11:49.907Z,23.57
2022-08-22T00:14:22.242Z,23.54
2022-08-22T00:17:01.050Z,23.56
2022-08-22T00:19:44.310Z,23.65
2022-08-22T00:22:32.583Z,23.64
2022-08-22T00:25:32.004Z,23.72
2022-08-22T00:28:25.540Z,23.56
2022-08-22T00:31:14.007Z,23.34
2022-08-22T00:34:02.270Z,23.27
2022-08-22T00:36:35.618Z,23.42
2022-08-22T00:39:27.353Z,23.38
2022-08-22T00:42:02.615Z,23.18
2022-08-22T00:44:44.178Z,22.92
2022-08-22T00:47:27.899Z,22.93
2022-08-22T00:50:04.570Z,22.92
2022-08-22T00:53:05.371Z,23.13
2022-08-22T00:55:59.581Z,23.07
2022-08-22T00:58:39.186Z,23.10
2022-08-22T01:01:09.835Z,23.24
2022-08-22T01:03:48.603Z,23.31
2022-08-22T01:06:33.999Z,23.27
2022-08-22T01:09:29.715Z,23.22
2022-08-22T01:12:11.577Z,23.08
2022-08-22T01:15:02.760Z,23.20
2022-08-22T01:17:44.306Z,23.13
2022-08-22T01:20:50.314Z,23.03
2022-08-22T01:23:42.994Z,23.10
2022-08-22T01:26:25.707Z,23.08
2022-08-22T01:29:10.504Z,23.02
2022-08-22T01:31:52.386Z,23.08
2022-08-22T01:34:42.205Z,22.96
2022-08-22T01:37:43.639Z,22.83
2022-08-22T01:40:53.836Z,22.84
2022-08-22T01:43:59.655Z,22.89
2022-08-22T01:46:42.790Z,22.77
2022-08-22T01:49:22.028Z,22.67
2022-08-22T01:52:19.638Z,22.70
2022-08-22T01:55:11.399Z,22.74
2022-08-22T01:57:57.447Z,22.78
2022-08-22T02:00:35.372Z,22.71
2022-08-22T02:03:12.051Z,22.63
2022-08-22T02:05:48.671Z,22.58
2022-08-22T02:08:40.350Z,22.31
2022-08-22T02:11:10.769Z,22.37
2022-08-22T02:14:00.134Z,22.16
2022-08-22T02:16:40.742Z,22.08
2022-08-22T02:19:22.799Z,22.08
2022-08-22T02:21:49.646Z,22.22
2022-08-22T02:24:29.242Z,22.06
2022-08-22T02:27:08.578Z,22.21
2022-08-22T02:29:46.845Z,21.84
2022-08-22T02:32:26.975Z,21.68
2022-08-22T02:35:24.254Z,22.02
2022-08-22T02:38:24.179Z,22.11
2022-08-22T02:41:16.321Z,22.37
2022-08-22T02:44:02.208Z,22.46
2022-08-22T02:46:49.732Z,22.37
2022-08-22T02:49:28.578Z,22.35
2022-08-22T02:52:13.459Z,22.38
2022-08-22T02:55:01.807Z,22.19
2022-08-22T02:58:00.757Z,22.31
2022-08-22T03:00:33.215Z,22.31
2022-08-22T03:03:00.099Z,22.23
2022-08-22T03:05:40.050Z,22.30
2022-08-22T03:08:21.880Z,22.27
2022-08-22T03:11:13.289Z,22.29
2022-08-22T03:14:11.674Z,22.17
2022-08-22T03:17:02.815Z,22.10
2022-08-22T03:20:01.813Z,22.08
2022-08-22T03:22:48.338Z,22.07
2022-08-22T03:25:32.099Z,21.95
2022-08-22T03:28:03.287Z,22.08
2022-08-22T03:30:38.008Z,22.12
2022-08-22T03:33:18.348Z,22.13
2022-08-22T03:35:45.552Z,22.12
2022-08-22T03:38:24.713Z,22.00
2022-08-22T03:41:13.308Z,22.03
2022-08-22T03:44:06.955Z,22.09
2022-08-22T03:47:17.006Z,21.96
2022-08-22T03:50:10.571Z,21.58
2022-08-22T03:53:19.107Z,21.52
2022-08-22T03:55:45.923Z,21.37
2022-08-22T03:58:35.735Z,21.47
2022-08-22T04:01:23.710Z,21.35
2022-08-22T04:04:34.830Z,21.40
2022-08-22T04:07:31.483Z,21.23
2022-08-22T04:10:27.439Z,21.36
2022-08-22T04:13:13.254Z,21.28
2022-08-22T04:16:00.033Z,21.26
2022-08-22T04:18:52.310Z,21.17
2022-08-22T04:21:42.997Z,21.23
2022-08-22T04:24:43.848Z,21.31
2022-08-22T04:27:50.691Z,21.32
2022-08-22T04:30:33.511Z,21.32
2022-08-22T04:33:10.816Z,21.22
2022-08-22T04:36:00.915Z,21.18
2022-08-22T04:38:41.074Z,21.32
2022-08-22T04:41:24.446Z,21.38
2022-08-22T04:43:58.767Z,21.48
2022-08-22T04:46:52.618Z,21.51
2022-08-22T04:49:40.456Z,21.55
2022-08-22T04:52:19.703Z,21.70
2022-08-22T04:55:24.399Z,21.80
2022-08-22T04:58:17.080Z,21.89
2022-08-22T05:00:57.004Z,21.90
2022-08-22T05:03:27.004Z,21.99
2022-08-22T05:05:57.200Z,21.96
2022-08-22T05:08:27.191Z,22.15
2022-08-22T05:10:54.862Z,22.88
2022-08-22T05:13:30.573Z,23.88
2022-08-22T05:16:02.987Z,25.19
2022-08-22T05:18:35.587Z,26.63
2022-08-22T05:21:07.461Z,27.87
2022-08-22T05:23:48.102Z,29.15
2022-08-22T05:26:17.334Z,30.17
2022-08-22T05:28:52.934Z,31.26
2022-08-22T05:31:32.564Z,32.26
2022-08-22T05:34:14.645Z,32.39
2022-08-22T05:36:45.900Z,33.07
2022-08-22T05:39:17.332Z,33.93
2022-08-22T05:41:44.692Z,34.53
2022-08-22T05:44:19.755Z,35.04
2022-08-22T05:47:00.647Z,35.30
2022-08-22T05:49:53.126Z,34.97
2022-08-22T05:52:47.514Z,34.89
2022-08-22T05:55:25.015Z,35.86
2022-08-22T05:58:04.541Z,36.13
2022-08-22T06:00:38.270Z,37.04
2022-08-22T06:03:37.023Z,37.35
2022-08-22T06:06:13.400Z,37.67
2022-08-22T06:08:44.231Z,38.37
2022-08-22T06:11:47.302Z,39.07
2022-08-22T06:14:45.202Z,40.11
2022-08-22T06:17:20.503Z,39.58
2022-08-22T06:19:51.065Z,40.07
2022-08-22T06:22:28.324Z,40.50
2022-08-22T06:25:01.234Z,41.36
2022-08-22T06:27:31.394Z,41.56
2022-08-22T06:30:01.430Z,41.88
2022-08-22T06:32:59.244Z,41.98
2022-08-22T06:35:54.841Z,41.90
2022-08-22T06:38:28.710Z,41.59
2022-08-22T06:41:00.458Z,41.40
2022-08-22T06:43:40.601Z,40.91
2022-08-22T06:46:08.576Z,40.18
2022-08-22T06:48:37.247Z,40.09
2022-08-22T06:51:08.605Z,39.84
2022-08-22T06:53:48.722Z,39.26
2022-08-22T06:56:29.475Z,38.18
2022-08-22T06:58:58.746Z,38.64
2022-08-22T07:01:30.591Z,38.70
2022-08-22T07:04:05.239Z,39.26
2022-08-22T07:06:36.093Z,40.00
2022-08-22T07:09:06.670Z,39.18
2022-08-22T07:11:43.156Z,39.37
2022-08-22T07:14:14.595Z,39.69
2022-08-22T07:16:53.907Z,39.78
2022-08-22T07:19:35.036Z,39.57
2022-08-22T07:22:11.498Z,39.65
2022-08-22T07:24:44.550Z,40.70
2022-08-22T07:27:25.598Z,41.38
2022-08-22T07:30:13.964Z,42.15
2022-08-22T07:33:25.880Z,42.55
2022-08-22T07:35:54.704Z,43.05
2022-08-22T07:38:42.609Z,42.64
2022-08-22T07:41:21.230Z,42.41
2022-08-22T07:44:09.155Z,41.97
2022-08-22T07:46:41.270Z,42.23
2022-08-22T07:49:13.471Z,42.64
2022-08-22T07:51:44.973Z,42.67
2022-08-22T07:54:16.488Z,42.60
2022-08-22T07:56:56.452Z,42.03
2022-08-22T07:59:24.540Z,43.03
2022-08-22T08:01:54.717Z,42.49
2022-08-22T08:04:26.082Z,42.90
2022-08-22T08:06:56.388Z,43.69
2022-08-22T08:09:24.788Z,42.94
2022-08-22T08:11:53.690Z,43.28
2022-08-22T08:14:23.316Z,43.12
2022-08-22T08:17:03.191Z,43.11
2022-08-22T08:19:33.369Z,43.63
2022-08-22T08:22:00.365Z,44.22
2022-08-22T08:24:43.432Z,44.37
2022-08-22T08:27:54.520Z,44.61
2022-08-22T08:30:26.174Z,44.59
2022-08-22T08:32:57.592Z,44.52
2022-08-22T08:36:02.569Z,44.31
2022-08-22T08:38:36.431Z,43.71
2022-08-22T08:41:50.460Z,43.44
2022-08-22T08:44:45.923Z,42.12
2022-08-22T08:47:27.439Z,41.01
2022-08-22T08:50:00.039Z,41.57
2022-08-22T08:56:04.171Z,41.88
2022-08-22T08:58:50.959Z,41.39
2022-08-22T09:01:34.089Z,41.01
2022-08-22T09:04:33.999Z,39.51
2022-08-22T09:07:32.307Z,39.71
2022-08-22T09:10:14.676Z,39.27
2022-08-22T09:13:18.860Z,38.50
2022-08-22T09:16:13.516Z,38.28
2022-08-22T09:19:23.288Z,38.47
2022-08-22T09:22:27.195Z,38.41
2022-08-22T09:25:17.942Z,39.03
2022-08-22T09:27:56.017Z,38.85
2022-08-22T09:30:28.516Z,38.24
2022-08-22T09:33:11.713Z,37.53
2022-08-22T09:36:05.343Z,37.47
2022-08-22T09:39:05.954Z,37.04
2022-08-22T09:41:51.757Z,36.47
2022-08-22T09:44:46.505Z,36.04
2022-08-22T09:47:39.785Z,36.81
2022-08-22T09:50:21.884Z,37.19
2022-08-22T09:53:09.247Z,37.98
2022-08-22T09:56:11.725Z,38.14
2022-08-22T09:59:01.402Z,38.24
2022-08-22T10:01:56.142Z,37.57
2022-08-22T10:04:36.304Z,36.13
2022-08-22T10:07:14.814Z,35.96
2022-08-22T10:10:05.743Z,36.01
2022-08-22T10:12:42.262Z,36.07
2022-08-22T10:15:23.201Z,36.16
2022-08-22T10:18:14.613Z,35.79
2022-08-22T10:21:02.347Z,35.89
2022-08-22T10:23:40.172Z,36.49
2022-08-22T10:26:07.994Z,35.78
2022-08-22T10:28:53.121Z,35.19
2022-08-22T10:31:33.531Z,35.72
2022-08-22T10:34:13.630Z,36.10
2022-08-22T10:36:50.696Z,36.94
2022-08-22T10:39:24.623Z,37.58
2022-08-22T10:42:12.090Z,37.97
2022-08-22T10:44:48.717Z,38.10
2022-08-22T10:47:21.874Z,37.56
2022-08-22T10:49:57.562Z,38.03
2022-08-22T10:52:40.755Z,38.24
2022-08-22T10:55:20.926Z,38.60
2022-08-22T10:58:11.326Z,38.81
2022-08-22T11:00:53.967Z,38.20
2022-08-22T11:03:32.629Z,37.86
2022-08-22T11:06:03.416Z,38.73
2022-08-22T11:08:41.987Z,39.33
2022-08-22T11:11:44.963Z,39.65
2022-08-22T11:14:41.028Z,39.82
2022-08-22T11:18:02.573Z,39.18
2022-08-22T11:20:52.655Z,39.00
2022-08-22T11:23:51.678Z,38.24
2022-08-22T11:26:29.303Z,38.14
2022-08-22T11:29:24.640Z,37.27
2022-08-22T11:32:12.944Z,38.19
2022-08-22T11:34:48.698Z,38.41
2022-08-22T11:37:23.964Z,37.69
2022-08-22T11:40:15.547Z,37.16
2022-08-22T11:42:55.687Z,37.46
2022-08-22T11:45:34.646Z,37.21
2022-08-22T11:48:07.296Z,36.47
2022-08-22T11:50:55.900Z,36.28
2022-08-22T11:53:37.508Z,36.40
2022-08-22T11:56:34.411Z,36.75
2022-08-22T11:59:23.945Z,36.50
2022-08-22T12:01:56.696Z,36.98
2022-08-22T12:04:44.163Z,37.02
2022-08-22T12:07:17.061Z,37.28
2022-08-22T12:09:51.295Z,37.53
2022-08-22T12:12:35.930Z,37.54
2022-08-22T12:15:17.722Z,37.14
2022-08-22T12:18:09.569Z,36.63
2022-08-22T12:20:55.175Z,36.79
2022-08-22T12:23:48.652Z,37.67
2022-08-22T12:26:19.295Z,37.82
2022-08-22T12:29:16.919Z,38.06
2022-08-22T12:31:58.594Z,38.71
2022-08-22T12:34:41.826Z,39.12
2022-08-22T12:37:32.036Z,38.64
2022-08-22T12:40:26.437Z,38.34
2022-08-22T12:43:06.522Z,37.64
2022-08-22T12:46:03.563Z,37.24
2022-08-22T12:49:00.622Z,37.51
2022-08-22T12:52:00.925Z,36.52
2022-08-22T12:54:52.416Z,35.53
2022-08-22T12:57:40.139Z,35.56
2022-08-22T13:00:27.007Z,36.02
2022-08-22T13:03:01.679Z,36.36
2022-08-22T13:05:31.102Z,37.12
2022-08-22T13:08:14.125Z,37.20
2022-08-22T13:10:51.835Z,37.01
2022-08-22T13:13:38.943Z,36.96
2022-08-22T13:16:11.773Z,37.52
2022-08-22T13:18:53.512Z,37.41
2022-08-22T13:21:31.713Z,38.12
2022-08-22T13:24:12.911Z,38.15
2022-08-22T13:26:56.788Z,38.55
2022-08-22T13:29:49.542Z,39.13
2022-08-22T13:32:51.443Z,39.49
2022-08-22T13:35:32.524Z,39.86
2022-08-22T13:38:07.750Z,40.21
2022-08-22T13:40:44.149Z,39.91
2022-08-22T13:43:17.744Z,39.63
2022-08-22T13:45:54.203Z,38.81
2022-08-22T13:48:28.473Z,38.40
2022-08-22T13:51:14.870Z,38.38
2022-08-22T13:54:00.575Z,38.37
2022-08-22T13:57:05.446Z,38.19
2022-08-22T14:00:08.389Z,38.41
2022-08-22T14:02:43.693Z,38.42
2022-08-22T14:05:18.255Z,38.27
2022-08-22T14:07:59.379Z,37.62
2022-08-22T14:10:34.561Z,37.39
2022-08-22T14:13:37.948Z,37.33
2022-08-22T14:16:11.083Z,37.64
2022-08-22T14:18:49.438Z,37.81
2022-08-22T14:21:40.881Z,37.85
2022-08-22T14:24:46.154Z,37.92
2022-08-22T14:27:27.566Z,36.29
2022-08-22T14:30:12.793Z,36.45
2022-08-22T14:32:49.117Z,37.07
2022-08-22T14:35:37.623Z,37.24
2022-08-22T14:38:29.966Z,37.40
2022-08-22T14:41:10.429Z,37.42
2022-08-22T14:43:49.639Z,37.62
2022-08-22T14:46:26.668Z,37.89
2022-08-22T14:49:26.703Z,37.46
2022-08-22T14:52:25.309Z,37.24
2022-08-22T14:55:08.672Z,37.31
2022-08-22T14:57:42.201Z,37.75
2022-08-22T15:00:13.510Z,37.10
2022-08-22T15:02:41.750Z,37.15
2022-08-22T15:05:21.346Z,37.58
2022-08-22T15:07:55.983Z,37.84
2022-08-22T15:10:31.711Z,37.87
2022-08-22T15:13:05.350Z,37.63
2022-08-22T15:15:53.405Z,37.66
2022-08-22T15:18:28.346Z,36.97
2022-08-22T15:21:10.029Z,36.48
2022-08-22T15:23:44.716Z,36.48
2022-08-22T15:26:31.275Z,36.32
2022-08-22T15:29:07.235Z,36.50
2022-08-22T15:31:35.277Z,36.12
2022-08-22T15:34:13.111Z,36.16
2022-08-22T15:37:07.737Z,35.92
2022-08-22T15:40:29.807Z,36.27
2022-08-22T15:42:58.856Z,36.64
2022-08-22T15:45:38.836Z,36.51
2022-08-22T15:48:24.932Z,36.48
2022-08-22T15:51:10.475Z,36.61
2022-08-22T15:53:43.253Z,36.75
2022-08-22T15:56:13.853Z,36.97
2022-08-22T15:58:48.719Z,37.02
2022-08-22T16:01:25.979Z,37.12
2022-08-22T16:03:58.502Z,37.16
2022-08-22T16:06:53.011Z,37.17
2022-08-22T16:09:39.082Z,37.23
2022-08-22T16:12:23.600Z,37.24
2022-08-22T16:14:51.662Z,37.43
2022-08-22T16:17:30.120Z,37.46
2022-08-22T16:20:25.523Z,37.19
2022-08-22T16:22:58.278Z,37.14
2022-08-22T16:25:47.471Z,37.15
2022-08-22T16:28:57.317Z,37.17
2022-08-22T16:31:28.870Z,37.25
2022-08-22T16:33:59.160Z,37.16
2022-08-22T16:37:05.510Z,36.93
2022-08-22T16:39:52.416Z,37.10
2022-08-22T16:42:21.763Z,36.24
2022-08-22T16:45:06.905Z,35.27
2022-08-22T16:47:33.387Z,35.40
2022-08-22T16:50:24.880Z,35.10
2022-08-22T16:52:59.866Z,34.72
2022-08-22T16:55:29.284Z,34.30
2022-08-22T16:58:07.350Z,34.28
2022-08-22T17:01:02.117Z,34.09
2022-08-22T17:03:59.572Z,34.28
2022-08-22T17:06:45.042Z,33.81
2022-08-22T17:09:49.319Z,33.87
2022-08-22T17:12:46.041Z,33.90
2022-08-22T17:15:23.607Z,33.54
2022-08-22T17:18:11.722Z,33.57
2022-08-22T17:21:06.543Z,33.92
2022-08-22T17:24:00.204Z,33.94
2022-08-22T17:26:54.306Z,33.86
2022-08-22T17:29:43.734Z,33.92
2022-08-22T17:32:15.818Z,33.86
2022-08-22T17:34:56.862Z,33.91
2022-08-22T17:38:00.754Z,33.67
2022-08-22T17:40:56.714Z,33.46
2022-08-22T17:43:49.767Z,33.39
2022-08-22T17:46:41.847Z,33.27
2022-08-22T17:49:11.584Z,33.04
2022-08-22T17:51:48.140Z,33.23
2022-08-22T17:54:30.718Z,33.19
2022-08-22T17:57:07.258Z,33.13
2022-08-22T17:59:48.334Z,32.69
2022-08-22T18:02:56.267Z,32.81
2022-08-22T18:05:27.807Z,32.84
2022-08-22T18:11:24.195Z,32.49
2022-08-22T18:14:06.991Z,32.25
2022-08-22T18:16:33.471Z,32.25
2022-08-22T18:19:21.067Z,32.08
2022-08-22T18:21:57.358Z,31.73
2022-08-22T18:24:44.540Z,31.84
2022-08-22T18:27:34.153Z,31.84
2022-08-22T18:30:13.704Z,31.83
2022-08-22T18:32:52.431Z,31.66
2022-08-22T18:35:26.685Z,31.26
2022-08-22T18:38:19.644Z,31.34
2022-08-22T18:40:54.268Z,31.34
2022-08-22T18:43:36.133Z,31.31
2022-08-22T18:46:24.790Z,31.27
2022-08-22T18:49:13.962Z,31.26
2022-08-22T18:51:39.116Z,31.18
2022-08-22T18:54:06.749Z,31.32
2022-08-22T18:57:08.228Z,31.01
2022-08-22T18:59:48.630Z,30.80
2022-08-22T19:02:34.243Z,30.73
2022-08-22T19:05:20.028Z,30.26
2022-08-22T19:08:04.484Z,30.00
2022-08-22T19:10:48.244Z,30.15
2022-08-22T19:13:28.266Z,30.29
2022-08-22T19:16:08.095Z,30.42
2022-08-22T19:18:52.786Z,29.83
2022-08-22T19:21:42.957Z,29.64
2022-08-22T19:24:56.467Z,29.27
2022-08-22T19:27:31.206Z,29.13
2022-08-22T19:30:02.249Z,29.02
2022-08-22T19:32:44.022Z,29.09
2022-08-22T19:35:29.573Z,29.04
2022-08-22T19:38:00.107Z,28.72
2022-08-22T19:40:55.494Z,28.57
2022-08-22T19:43:38.181Z,28.84
2022-08-22T19:46:12.605Z,28.87
2022-08-22T19:48:48.949Z,28.75
2022-08-22T19:51:21.536Z,28.69
2022-08-22T19:54:16.444Z,28.57
2022-08-22T19:57:10.346Z,28.36
2022-08-22T20:00:01.936Z,28.38
2022-08-22T20:02:51.838Z,27.96
2022-08-22T20:05:46.182Z,28.00
2022-08-22T20:08:31.151Z,28.24
2022-08-22T20:11:18.645Z,28.17
2022-08-22T20:13:45.488Z,27.87
2022-08-22T20:16:20.446Z,27.79
2022-08-22T20:19:07.971Z,27.67
2022-08-22T20:21:50.955Z,27.90
2022-08-22T20:24:37.759Z,27.74
2022-08-22T20:27:15.336Z,27.63
2022-08-22T20:29:49.148Z,27.80
2022-08-22T20:32:18.799Z,27.86
2022-08-22T20:34:47.198Z,27.81
2022-08-22T20:37:32.333Z,27.95
2022-08-22T20:40:59.632Z,27.80
2022-08-22T20:43:35.746Z,27.86
2022-08-22T20:46:25.292Z,27.86
2022-08-22T20:48:55.166Z,27.56
2022-08-22T20:51:25.737Z,27.55
2022-08-22T20:53:59.507Z,27.51
2022-08-22T20:56:46.058Z,27.41
2022-08-22T20:59:31.235Z,27.34
2022-08-22T21:02:06.804Z,27.30
2022-08-22T21:04:57.050Z,27.11
2022-08-22T21:07:27.662Z,27.12
2022-08-22T21:10:23.728Z,27.16
2022-08-22T21:13:05.356Z,27.08
2022-08-22T21:15:41.930Z,27.10
2022-08-22T21:18:12.015Z,26.90
2022-08-22T21:20:39.665Z,27.15
2022-08-22T21:23:12.192Z,26.97
2022-08-22T21:25:57.491Z,26.87
2022-08-22T21:28:35.413Z,26.73
2022-08-22T21:31:16.198Z,26.79
2022-08-22T21:33:48.612Z,26.81
2022-08-22T21:36:18.756Z,26.91
2022-08-22T21:38:55.675Z,26.68
2022-08-22T21:41:34.084Z,26.60
2022-08-22T21:44:28.071Z,26.53
2022-08-22T21:46:55.661Z,26.61
2022-08-22T21:49:27.119Z,26.45
2022-08-22T21:51:53.828Z,26.45
2022-08-22T21:54:24.315Z,26.34
2022-08-22T21:56:53.859Z,26.46
2022-08-22T21:59:51.559Z,26.43
2022-08-22T22:02:36.445Z,26.44
2022-08-22T22:05:15.831Z,26.40
2022-08-22T22:07:46.680Z,26.30
2022-08-22T22:10:16.693Z,26.29
2022-08-22T22:12:46.502Z,26.55
2022-08-22T22:15:18.117Z,26.49
2022-08-22T22:17:44.819Z,26.35
2022-08-22T22:20:12.525Z,26.06
2022-08-22T22:22:46.626Z,26.13
2022-08-22T22:25:40.973Z,26.04
2022-08-22T22:28:10.292Z,26.13
2022-08-22T22:30:37.012Z,26.10
2022-08-22T22:33:04.308Z,25.79
2022-08-22T22:35:31.540Z,26.13
2022-08-22T22:37:58.131Z,26.27
2022-08-22T22:40:24.819Z,26.17
2022-08-22T22:42:52.018Z,25.98
2022-08-22T22:45:18.716Z,25.99
2022-08-22T22:47:45.458Z,26.19
2022-08-22T22:50:12.068Z,26.18
2022-08-22T22:52:40.848Z,26.40
2022-08-22T22:55:09.108Z,25.97
2022-08-22T22:57:39.633Z,25.76
2022-08-22T23:00:12.712Z,25.86
2022-08-22T23:02:39.632Z,25.98
2022-08-22T23:05:07.643Z,25.83
2022-08-22T23:07:34.401Z,26.17
2022-08-22T23:10:01.580Z,26.34
2022-08-22T23:12:28.858Z,26.08
2022-08-22T23:14:55.508Z,26.18
2022-08-22T23:17:22.202Z,25.99
2022-08-22T23:19:50.792Z,26.07
2022-08-22T23:22:18.411Z,25.86
2022-08-22T23:24:46.269Z,25.81
2022-08-22T23:27:13.048Z,25.79
2022-08-22T23:29:41.155Z,25.95
2022-08-22T23:32:10.435Z,25.84
2022-08-22T23:34:43.817Z,25.83
2022-08-22T23:37:10.778Z,25.66
2022-08-22T23:39:38.353Z,25.80
2022-08-22T23:42:07.656Z,25.75
2022-08-22T23:44:36.136Z,25.59
2022-08-22T23:47:04.427Z,25.71
2022-08-22T23:49:32.037Z,25.95
2022-08-22T23:51:59.722Z,25.73
2022-08-22T23:54:26.668Z,25.81
2022-08-22T23:56:56.304Z,26.01
2022-08-22T23:59:30.628Z,25.68
